sensor_id;sensor_type;location;lat;lon;timestamp;pressure;altitude;pressure_sealevel;temperature;humidity
33781;BME280;20097;50.832;19.100;2023-02-19T00:02:37;97939.72;;;4.88;100.00
33781;BME280;20097;50.832;19.100;2023-02-19T00:07:41;97947.56;;;4.79;100.00
33781;BME280;20097;50.832;19.100;2023-02-19T00:12:45;97944.66;;;4.82;100.00
33781;BME280;20097;50.832;19.100;2023-02-19T00:17:51;97929.47;;;4.79;100.00
33781;BME280;20097;50.832;19.100;2023-02-19T00:22:56;97928.22;;;4.83;100.00
33781;BME280;20097;50.832;19.100;2023-02-19T00:28:00;97926.66;;;4.90;100.00
33781;BME280;20097;50.832;19.100;2023-02-19T00:33:06;97937.16;;;4.88;100.00
33781;BME280;20097;50.832;19.100;2023-02-19T00:38:11;97937.53;;;4.93;100.00
33781;BME280;20097;50.832;19.100;2023-02-19T00:43:15;97944.66;;;4.82;100.00
33781;BME280;20097;50.832;19.100;2023-02-19T00:48:21;97944.00;;;4.80;100.00
33781;BME280;20097;50.832;19.100;2023-02-19T00:53:25;97933.66;;;4.80;100.00
33781;BME280;20097;50.832;19.100;2023-02-19T00:58:30;97942.75;;;4.84;100.00
33781;BME280;20097;50.832;19.100;2023-02-19T01:03:37;97934.47;;;4.80;100.00
33781;BME280;20097;50.832;19.100;2023-02-19T01:08:42;97934.47;;;4.80;100.00
33781;BME280;20097;50.832;19.100;2023-02-19T01:13:47;97941.53;;;4.88;100.00
33781;BME280;20097;50.832;19.100;2023-02-19T01:18:53;97948.69;;;4.94;100.00
33781;BME280;20097;50.832;19.100;2023-02-19T01:23:59;97945.56;;;4.90;100.00
33781;BME280;20097;50.832;19.100;2023-02-19T01:29:04;97932.19;;;4.95;100.00
33781;BME280;20097;50.832;19.100;2023-02-19T01:34:11;97934.47;;;4.98;100.00
33781;BME280;20097;50.832;19.100;2023-02-19T01:39:16;97920.69;;;4.89;100.00
33781;BME280;20097;50.832;19.100;2023-02-19T01:50:23;97898.22;;;4.90;100.00
33781;BME280;20097;50.832;19.100;2023-02-19T01:55:33;97897.13;;;4.92;100.00
33781;BME280;20097;50.832;19.100;2023-02-19T02:00:37;97898.72;;;4.93;100.00
33781;BME280;20097;50.832;19.100;2023-02-19T02:05:51;97889.06;;;4.95;100.00
33781;BME280;20097;50.832;19.100;2023-02-19T02:10:57;97876.22;;;4.86;100.00
33781;BME280;20097;50.832;19.100;2023-02-19T02:16:16;97881.38;;;4.86;100.00
33781;BME280;20097;50.832;19.100;2023-02-19T02:21:50;97870.22;;;4.85;100.00
33781;BME280;20097;50.832;19.100;2023-02-19T02:27:16;97866.97;;;4.83;100.00
33781;BME280;20097;50.832;19.100;2023-02-19T02:32:29;97865.03;;;4.85;100.00
33781;BME280;20097;50.832;19.100;2023-02-19T02:37:39;97853.25;;;4.83;100.00
33781;BME280;20097;50.832;19.100;2023-02-19T02:42:47;97854.34;;;4.80;100.00
33781;BME280;20097;50.832;19.100;2023-02-19T02:47:54;97858.97;;;4.77;100.00
33781;BME280;20097;50.832;19.100;2023-02-19T02:53:04;97854.63;;;4.77;100.00
33781;BME280;20097;50.832;19.100;2023-02-19T02:58:29;97850.84;;;4.72;100.00
33781;BME280;20097;50.832;19.100;2023-02-19T03:03:38;97837.13;;;4.71;100.00
33781;BME280;20097;50.832;19.100;2023-02-19T03:08:50;97842.84;;;4.75;100.00
33781;BME280;20097;50.832;19.100;2023-02-19T03:14:03;97836.31;;;4.71;100.00
33781;BME280;20097;50.832;19.100;2023-02-19T03:19:32;97834.03;;;4.68;100.00
33781;BME280;20097;50.832;19.100;2023-02-19T03:24:44;97821.09;;;4.68;100.00
33781;BME280;20097;50.832;19.100;2023-02-19T03:30:11;97813.41;;;4.76;100.00
33781;BME280;20097;50.832;19.100;2023-02-19T03:35:22;97826.72;;;4.81;100.00
33781;BME280;20097;50.832;19.100;2023-02-19T03:40:30;97824.50;;;4.86;100.00
33781;BME280;20097;50.832;19.100;2023-02-19T03:45:44;97814.16;;;4.86;100.00
33781;BME280;20097;50.832;19.100;2023-02-19T03:51:00;97816.97;;;4.75;100.00
33781;BME280;20097;50.832;19.100;2023-02-19T03:56:12;97803.00;;;4.85;100.00
33781;BME280;20097;50.832;19.100;2023-02-19T04:01:25;97803.50;;;4.89;100.00
33781;BME280;20097;50.832;19.100;2023-02-19T04:06:33;97800.00;;;4.98;100.00
33781;BME280;20097;50.832;19.100;2023-02-19T04:11:39;97792.63;;;5.03;100.00
33781;BME280;20097;50.832;19.100;2023-02-19T04:16:50;97789.28;;;5.10;100.00
33781;BME280;20097;50.832;19.100;2023-02-19T04:22:00;97789.38;;;5.01;100.00
33781;BME280;20097;50.832;19.100;2023-02-19T04:27:05;97787.44;;;5.03;100.00
33781;BME280;20097;50.832;19.100;2023-02-19T04:32:12;97781.31;;;5.04;100.00
33781;BME280;20097;50.832;19.100;2023-02-19T04:37:18;97774.50;;;5.03;100.00
33781;BME280;20097;50.832;19.100;2023-02-19T04:42:23;97769.19;;;5.04;100.00
33781;BME280;20097;50.832;19.100;2023-02-19T04:47:27;97756.25;;;5.04;100.00
33781;BME280;20097;50.832;19.100;2023-02-19T04:52:34;97745.75;;;5.06;100.00
33781;BME280;20097;50.832;19.100;2023-02-19T04:57:39;97737.19;;;5.05;100.00
33781;BME280;20097;50.832;19.100;2023-02-19T05:02:44;97733.34;;;5.09;100.00
33781;BME280;20097;50.832;19.100;2023-02-19T05:07:50;97729.97;;;5.09;100.00
33781;BME280;20097;50.832;19.100;2023-02-19T05:12:54;97719.44;;;5.10;100.00
33781;BME280;20097;50.832;19.100;2023-02-19T05:17:59;97720.75;;;5.14;100.00
33781;BME280;20097;50.832;19.100;2023-02-19T05:23:05;97717.84;;;5.17;100.00
33781;BME280;20097;50.832;19.100;2023-02-19T05:28:10;97720.63;;;5.24;100.00
33781;BME280;20097;50.832;19.100;2023-02-19T05:33:22;97724.19;;;5.23;100.00
33781;BME280;20097;50.832;19.100;2023-02-19T05:38:28;97717.72;;;5.27;100.00
33781;BME280;20097;50.832;19.100;2023-02-19T05:43:33;97725.81;;;5.24;100.00
33781;BME280;20097;50.832;19.100;2023-02-19T05:48:37;97726.28;;;5.19;100.00
33781;BME280;20097;50.832;19.100;2023-02-19T05:53:44;97731.28;;;5.21;100.00
33781;BME280;20097;50.832;19.100;2023-02-19T05:58:50;97727.13;;;5.28;100.00
33781;BME280;20097;50.832;19.100;2023-02-19T06:03:55;97737.03;;;5.32;100.00
33781;BME280;20097;50.832;19.100;2023-02-19T06:09:01;97730.66;;;5.27;100.00
33781;BME280;20097;50.832;19.100;2023-02-19T06:14:05;97727.97;;;5.28;100.00
33781;BME280;20097;50.832;19.100;2023-02-19T06:19:10;97741.09;;;5.35;100.00
33781;BME280;20097;50.832;19.100;2023-02-19T06:24:15;97736.53;;;5.37;100.00
33781;BME280;20097;50.832;19.100;2023-02-19T06:29:22;97751.91;;;5.38;100.00
33781;BME280;20097;50.832;19.100;2023-02-19T06:34:26;97752.44;;;5.42;100.00
33781;BME280;20097;50.832;19.100;2023-02-19T06:39:32;97752.53;;;5.32;100.00
33781;BME280;20097;50.832;19.100;2023-02-19T06:44:36;97743.59;;;5.27;100.00
33781;BME280;20097;50.832;19.100;2023-02-19T06:49:41;97755.94;;;5.33;100.00
33781;BME280;20097;50.832;19.100;2023-02-19T06:54:46;97758.19;;;5.28;100.00
33781;BME280;20097;50.832;19.100;2023-02-19T06:59:51;97753.53;;;5.31;100.00
33781;BME280;20097;50.832;19.100;2023-02-19T07:04:55;97761.09;;;5.25;100.00
33781;BME280;20097;50.832;19.100;2023-02-19T07:10:01;97772.19;;;5.17;100.00
33781;BME280;20097;50.832;19.100;2023-02-19T07:15:06;97777.03;;;5.20;100.00
33781;BME280;20097;50.832;19.100;2023-02-19T07:20:12;97780.66;;;5.02;100.00
33781;BME280;20097;50.832;19.100;2023-02-19T07:25:18;97774.03;;;4.82;100.00
33781;BME280;20097;50.832;19.100;2023-02-19T07:30:24;97772.97;;;4.67;100.00
33781;BME280;20097;50.832;19.100;2023-02-19T07:35:28;97777.13;;;4.42;100.00
33781;BME280;20097;50.832;19.100;2023-02-19T07:40:34;97792.16;;;4.47;100.00
33781;BME280;20097;50.832;19.100;2023-02-19T07:45:39;97792.84;;;4.49;100.00
33781;BME280;20097;50.832;19.100;2023-02-19T07:50:50;97796.28;;;4.40;100.00
33781;BME280;20097;50.832;19.100;2023-02-19T07:55:59;97800.94;;;4.18;100.00
33781;BME280;20097;50.832;19.100;2023-02-19T08:01:11;97806.88;;;4.01;100.00
33781;BME280;20097;50.832;19.100;2023-02-19T08:06:16;97813.47;;;3.86;100.00
33781;BME280;20097;50.832;19.100;2023-02-19T08:11:22;97804.28;;;3.74;100.00
33781;BME280;20097;50.832;19.100;2023-02-19T08:16:48;97808.69;;;3.64;100.00
33781;BME280;20097;50.832;19.100;2023-02-19T08:21:52;97806.09;;;3.74;100.00
33781;BME280;20097;50.832;19.100;2023-02-19T08:26:58;97807.31;;;3.70;100.00
33781;BME280;20097;50.832;19.100;2023-02-19T08:32:03;97819.38;;;3.42;100.00
33781;BME280;20097;50.832;19.100;2023-02-19T08:37:07;97825.84;;;3.56;100.00
33781;BME280;20097;50.832;19.100;2023-02-19T08:42:13;97822.47;;;3.46;100.00
33781;BME280;20097;50.832;19.100;2023-02-19T08:47:18;97814.88;;;3.44;100.00
33781;BME280;20097;50.832;19.100;2023-02-19T08:52:22;97823.84;;;3.40;100.00
33781;BME280;20097;50.832;19.100;2023-02-19T08:57:28;97829.97;;;3.39;100.00
33781;BME280;20097;50.832;19.100;2023-02-19T09:02:33;97838.94;;;3.35;100.00
33781;BME280;20097;50.832;19.100;2023-02-19T09:07:37;97836.81;;;3.67;100.00
33781;BME280;20097;50.832;19.100;2023-02-19T09:12:43;97846.63;;;3.45;100.00
33781;BME280;20097;50.832;19.100;2023-02-19T09:17:50;97859.13;;;3.49;100.00
33781;BME280;20097;50.832;19.100;2023-02-19T09:22:58;97875.19;;;3.34;100.00
33781;BME280;20097;50.832;19.100;2023-02-19T09:28:04;97884.69;;;3.33;100.00
33781;BME280;20097;50.832;19.100;2023-02-19T09:33:09;97875.47;;;3.31;100.00
33781;BME280;20097;50.832;19.100;2023-02-19T09:38:13;97884.69;;;3.14;100.00
33781;BME280;20097;50.832;19.100;2023-02-19T09:43:20;97887.28;;;3.14;100.00
33781;BME280;20097;50.832;19.100;2023-02-19T09:48:26;97892.16;;;3.08;100.00
33781;BME280;20097;50.832;19.100;2023-02-19T09:53:33;97891.50;;;3.15;100.00
33781;BME280;20097;50.832;19.100;2023-02-19T09:58:47;97893.22;;;3.34;100.00
33781;BME280;20097;50.832;19.100;2023-02-19T10:03:54;97897.72;;;3.41;100.00
33781;BME280;20097;50.832;19.100;2023-02-19T10:09:20;97897.16;;;3.38;100.00
33781;BME280;20097;50.832;19.100;2023-02-19T10:14:34;97901.34;;;3.48;100.00
33781;BME280;20097;50.832;19.100;2023-02-19T10:19:39;97904.88;;;3.47;100.00
33781;BME280;20097;50.832;19.100;2023-02-19T10:24:44;97909.06;;;3.67;100.00
33781;BME280;20097;50.832;19.100;2023-02-19T10:29:55;97917.88;;;3.65;100.00
33781;BME280;20097;50.832;19.100;2023-02-19T10:35:10;97917.84;;;3.74;100.00
33781;BME280;20097;50.832;19.100;2023-02-19T10:40:17;97936.59;;;3.76;100.00
33781;BME280;20097;50.832;19.100;2023-02-19T10:45:29;97948.28;;;3.71;100.00
33781;BME280;20097;50.832;19.100;2023-02-19T10:50:37;97944.28;;;3.95;100.00
33781;BME280;20097;50.832;19.100;2023-02-19T10:55:45;97940.97;;;3.66;100.00
33781;BME280;20097;50.832;19.100;2023-02-19T11:01:10;97940.03;;;3.67;100.00
33781;BME280;20097;50.832;19.100;2023-02-19T11:06:18;97942.88;;;3.74;100.00
33781;BME280;20097;50.832;19.100;2023-02-19T11:11:30;97937.16;;;3.70;100.00
33781;BME280;20097;50.832;19.100;2023-02-19T11:16:42;97954.84;;;3.56;100.00
33781;BME280;20097;50.832;19.100;2023-02-19T11:21:48;97955.06;;;3.81;100.00
33781;BME280;20097;50.832;19.100;2023-02-19T11:26:52;97957.16;;;4.14;100.00
33781;BME280;20097;50.832;19.100;2023-02-19T11:32:22;97956.28;;;4.23;100.00
33781;BME280;20097;50.832;19.100;2023-02-19T11:37:28;97971.84;;;4.04;100.00
33781;BME280;20097;50.832;19.100;2023-02-19T11:42:41;97973.41;;;4.24;100.00
33781;BME280;20097;50.832;19.100;2023-02-19T11:48:30;97980.75;;;4.29;100.00
33781;BME280;20097;50.832;19.100;2023-02-19T11:53:42;97987.31;;;4.14;100.00
33781;BME280;20097;50.832;19.100;2023-02-19T11:59:01;98001.25;;;3.84;100.00
33781;BME280;20097;50.832;19.100;2023-02-19T12:10:08;97995.25;;;3.93;100.00
33781;BME280;20097;50.832;19.100;2023-02-19T12:21:09;97990.03;;;4.12;100.00
33781;BME280;20097;50.832;19.100;2023-02-19T12:26:22;98000.16;;;3.96;100.00
33781;BME280;20097;50.832;19.100;2023-02-19T12:37:30;98007.53;;;3.72;100.00
33781;BME280;20097;50.832;19.100;2023-02-19T12:42:54;98028.19;;;3.72;100.00
33781;BME280;20097;50.832;19.100;2023-02-19T12:48:11;98037.81;;;3.70;100.00
33781;BME280;20097;50.832;19.100;2023-02-19T12:53:33;98056.97;;;3.49;100.00
33781;BME280;20097;50.832;19.100;2023-02-19T12:58:42;98046.38;;;3.33;100.00
33781;BME280;20097;50.832;19.100;2023-02-19T13:04:08;98069.16;;;3.37;100.00
33781;BME280;20097;50.832;19.100;2023-02-19T13:09:20;98078.81;;;3.35;100.00
33781;BME280;20097;50.832;19.100;2023-02-19T13:14:31;98087.50;;;3.44;100.00
33781;BME280;20097;50.832;19.100;2023-02-19T13:19:37;98096.91;;;3.64;100.00
33781;BME280;20097;50.832;19.100;2023-02-19T13:24:44;98096.63;;;3.76;100.00
33781;BME280;20097;50.832;19.100;2023-02-19T13:30:04;98103.69;;;3.93;100.00
33781;BME280;20097;50.832;19.100;2023-02-19T13:35:36;98099.19;;;3.95;100.00
33781;BME280;20097;50.832;19.100;2023-02-19T13:40:55;98102.88;;;3.83;100.00
33781;BME280;20097;50.832;19.100;2023-02-19T13:46:04;98111.69;;;3.71;100.00
33781;BME280;20097;50.832;19.100;2023-02-19T13:51:38;98118.91;;;3.68;100.00
33781;BME280;20097;50.832;19.100;2023-02-19T13:57:25;98120.28;;;3.81;100.00
33781;BME280;20097;50.832;19.100;2023-02-19T14:02:32;98128.84;;;3.72;100.00
33781;BME280;20097;50.832;19.100;2023-02-19T14:07:53;98139.81;;;3.74;100.00
33781;BME280;20097;50.832;19.100;2023-02-19T14:12:59;98146.09;;;3.81;100.00
33781;BME280;20097;50.832;19.100;2023-02-19T14:18:42;98155.31;;;3.74;100.00
33781;BME280;20097;50.832;19.100;2023-02-19T14:23:52;98162.91;;;3.76;100.00
33781;BME280;20097;50.832;19.100;2023-02-19T14:28:59;98172.16;;;3.78;100.00
33781;BME280;20097;50.832;19.100;2023-02-19T14:34:13;98181.78;;;3.67;100.00
33781;BME280;20097;50.832;19.100;2023-02-19T14:39:24;98184.78;;;3.62;100.00
33781;BME280;20097;50.832;19.100;2023-02-19T14:44:36;98191.69;;;3.52;100.00
33781;BME280;20097;50.832;19.100;2023-02-19T14:49:52;98199.84;;;3.57;100.00
33781;BME280;20097;50.832;19.100;2023-02-19T14:55:02;98197.75;;;3.51;100.00
33781;BME280;20097;50.832;19.100;2023-02-19T15:00:23;98202.13;;;3.41;100.00
33781;BME280;20097;50.832;19.100;2023-02-19T15:05:30;98202.63;;;3.35;100.00
33781;BME280;20097;50.832;19.100;2023-02-19T15:10:36;98215.78;;;3.32;100.00
33781;BME280;20097;50.832;19.100;2023-02-19T15:15:43;98213.03;;;3.24;100.00
33781;BME280;20097;50.832;19.100;2023-02-19T15:20:51;98218.50;;;3.31;100.00
33781;BME280;20097;50.832;19.100;2023-02-19T15:26:02;98221.16;;;3.20;100.00
33781;BME280;20097;50.832;19.100;2023-02-19T15:31:14;98232.22;;;3.11;100.00
33781;BME280;20097;50.832;19.100;2023-02-19T15:36:25;98241.94;;;3.18;100.00
33781;BME280;20097;50.832;19.100;2023-02-19T15:41:32;98257.72;;;3.04;100.00
33781;BME280;20097;50.832;19.100;2023-02-19T15:46:40;98281.00;;;2.93;100.00
33781;BME280;20097;50.832;19.100;2023-02-19T15:51:51;98292.06;;;2.84;100.00
33781;BME280;20097;50.832;19.100;2023-02-19T15:57:01;98295.34;;;2.86;100.00
33781;BME280;20097;50.832;19.100;2023-02-19T16:02:11;98300.38;;;2.88;100.00
33781;BME280;20097;50.832;19.100;2023-02-19T16:07:25;98313.75;;;2.81;100.00
33781;BME280;20097;50.832;19.100;2023-02-19T16:12:31;98331.78;;;2.81;100.00
33781;BME280;20097;50.832;19.100;2023-02-19T16:17:36;98321.34;;;2.83;100.00
33781;BME280;20097;50.832;19.100;2023-02-19T16:22:41;98324.69;;;2.74;100.00
33781;BME280;20097;50.832;19.100;2023-02-19T16:27:46;98337.50;;;2.64;100.00
33781;BME280;20097;50.832;19.100;2023-02-19T16:33:32;98352.13;;;2.64;100.00
33781;BME280;20097;50.832;19.100;2023-02-19T16:38:38;98367.47;;;2.65;100.00
33781;BME280;20097;50.832;19.100;2023-02-19T16:43:42;98383.53;;;2.58;100.00
33781;BME280;20097;50.832;19.100;2023-02-19T16:48:49;98381.81;;;2.47;100.00
33781;BME280;20097;50.832;19.100;2023-02-19T16:53:54;98387.78;;;2.48;100.00
33781;BME280;20097;50.832;19.100;2023-02-19T16:58:58;98397.13;;;2.49;100.00
33781;BME280;20097;50.832;19.100;2023-02-19T17:04:09;98408.16;;;2.51;100.00
33781;BME280;20097;50.832;19.100;2023-02-19T17:09:14;98408.06;;;2.41;100.00
33781;BME280;20097;50.832;19.100;2023-02-19T17:14:19;98424.56;;;2.28;100.00
33781;BME280;20097;50.832;19.100;2023-02-19T17:19:25;98425.53;;;2.16;100.00
33781;BME280;20097;50.832;19.100;2023-02-19T17:24:30;98429.28;;;2.12;100.00
33781;BME280;20097;50.832;19.100;2023-02-19T17:29:34;98428.25;;;2.03;100.00
33781;BME280;20097;50.832;19.100;2023-02-19T17:34:40;98460.63;;;1.95;100.00
33781;BME280;20097;50.832;19.100;2023-02-19T17:39:45;98471.16;;;1.92;100.00
33781;BME280;20097;50.832;19.100;2023-02-19T17:44:49;98471.72;;;1.95;100.00
33781;BME280;20097;50.832;19.100;2023-02-19T17:49:56;98481.66;;;1.89;100.00
33781;BME280;20097;50.832;19.100;2023-02-19T17:55:01;98486.81;;;1.78;100.00
33781;BME280;20097;50.832;19.100;2023-02-19T18:00:07;98499.31;;;1.71;100.00
33781;BME280;20097;50.832;19.100;2023-02-19T18:05:16;98524.28;;;1.58;100.00
33781;BME280;20097;50.832;19.100;2023-02-19T18:10:22;98520.84;;;1.47;100.00
33781;BME280;20097;50.832;19.100;2023-02-19T18:15:27;98528.00;;;1.43;100.00
33781;BME280;20097;50.832;19.100;2023-02-19T18:20:33;98525.47;;;1.30;100.00
33781;BME280;20097;50.832;19.100;2023-02-19T18:25:38;98520.34;;;1.30;100.00
33781;BME280;20097;50.832;19.100;2023-02-19T18:30:43;98523.25;;;1.26;100.00
33781;BME280;20097;50.832;19.100;2023-02-19T18:35:49;98535.22;;;1.14;100.00
33781;BME280;20097;50.832;19.100;2023-02-19T18:40:53;98537.41;;;1.08;100.00
33781;BME280;20097;50.832;19.100;2023-02-19T18:46:00;98539.97;;;1.08;100.00
33781;BME280;20097;50.832;19.100;2023-02-19T18:51:08;98548.00;;;1.03;100.00
33781;BME280;20097;50.832;19.100;2023-02-19T18:56:13;98551.31;;;1.05;100.00
33781;BME280;20097;50.832;19.100;2023-02-19T19:01:17;98561.81;;;1.02;100.00
33781;BME280;20097;50.832;19.100;2023-02-19T19:06:23;98562.00;;;0.99;100.00
33781;BME280;20097;50.832;19.100;2023-02-19T19:11:27;98573.44;;;0.95;100.00
33781;BME280;20097;50.832;19.100;2023-02-19T19:16:32;98568.50;;;0.92;100.00
33781;BME280;20097;50.832;19.100;2023-02-19T19:21:38;98570.25;;;0.92;100.00
33781;BME280;20097;50.832;19.100;2023-02-19T19:26:44;98578.28;;;0.87;100.00
33781;BME280;20097;50.832;19.100;2023-02-19T19:31:49;98584.16;;;0.77;100.00
33781;BME280;20097;50.832;19.100;2023-02-19T19:36:54;98591.25;;;0.73;100.00
33781;BME280;20097;50.832;19.100;2023-02-19T19:41:59;98597.53;;;0.69;100.00
33781;BME280;20097;50.832;19.100;2023-02-19T19:47:03;98607.09;;;0.67;100.00
33781;BME280;20097;50.832;19.100;2023-02-19T19:52:09;98607.19;;;0.66;100.00
33781;BME280;20097;50.832;19.100;2023-02-19T19:57:15;98604.22;;;0.59;100.00
33781;BME280;20097;50.832;19.100;2023-02-19T20:02:19;98596.81;;;0.67;100.00
33781;BME280;20097;50.832;19.100;2023-02-19T20:07:26;98611.72;;;0.62;100.00
33781;BME280;20097;50.832;19.100;2023-02-19T20:12:31;98616.13;;;0.60;100.00
33781;BME280;20097;50.832;19.100;2023-02-19T20:17:36;98616.13;;;0.60;100.00
33781;BME280;20097;50.832;19.100;2023-02-19T20:22:41;98615.72;;;0.54;100.00
33781;BME280;20097;50.832;19.100;2023-02-19T20:27:47;98624.25;;;0.54;100.00
33781;BME280;20097;50.832;19.100;2023-02-19T20:32:51;98633.63;;;0.55;100.00
33781;BME280;20097;50.832;19.100;2023-02-19T20:37:58;98634.22;;;0.46;100.00
33781;BME280;20097;50.832;19.100;2023-02-19T20:43:02;98646.31;;;0.44;100.00
33781;BME280;20097;50.832;19.100;2023-02-19T20:48:07;98647.06;;;0.46;100.00
33781;BME280;20097;50.832;19.100;2023-02-19T20:53:12;98661.31;;;0.38;100.00
33781;BME280;20097;50.832;19.100;2023-02-19T20:58:17;98672.09;;;0.43;100.00
33781;BME280;20097;50.832;19.100;2023-02-19T21:03:23;98680.66;;;0.43;100.00
33781;BME280;20097;50.832;19.100;2023-02-19T21:08:29;98686.31;;;0.48;100.00
33781;BME280;20097;50.832;19.100;2023-02-19T21:13:33;98685.78;;;0.56;100.00
33781;BME280;20097;50.832;19.100;2023-02-19T21:18:38;98688.56;;;0.53;100.00
33781;BME280;20097;50.832;19.100;2023-02-19T21:23:44;98692.34;;;0.47;100.00
33781;BME280;20097;50.832;19.100;2023-02-19T21:28:50;98703.75;;;0.43;100.00
33781;BME280;20097;50.832;19.100;2023-02-19T21:33:54;98707.84;;;0.33;100.00
33781;BME280;20097;50.832;19.100;2023-02-19T21:39:00;98707.09;;;0.31;100.00
33781;BME280;20097;50.832;19.100;2023-02-19T21:44:05;98708.88;;;0.31;100.00
33781;BME280;20097;50.832;19.100;2023-02-19T21:49:10;98711.13;;;0.35;100.00
33781;BME280;20097;50.832;19.100;2023-02-19T21:54:19;98714.91;;;0.30;100.00
33781;BME280;20097;50.832;19.100;2023-02-19T21:59:24;98719.25;;;0.29;100.00
33781;BME280;20097;50.832;19.100;2023-02-19T22:04:28;98720.25;;;0.27;100.00
33781;BME280;20097;50.832;19.100;2023-02-19T22:09:34;98739.94;;;0.26;100.00
33781;BME280;20097;50.832;19.100;2023-02-19T22:14:40;98724.06;;;0.21;100.00
33781;BME280;20097;50.832;19.100;2023-02-19T22:19:44;98738.72;;;0.19;100.00
33781;BME280;20097;50.832;19.100;2023-02-19T22:24:50;98741.00;;;0.24;100.00
33781;BME280;20097;50.832;19.100;2023-02-19T22:29:55;98744.59;;;0.21;100.00
33781;BME280;20097;50.832;19.100;2023-02-19T22:34:59;98742.03;;;0.21;100.00
33781;BME280;20097;50.832;19.100;2023-02-19T22:40:06;98755.03;;;0.18;100.00
33781;BME280;20097;50.832;19.100;2023-02-19T22:45:11;98760.88;;;0.20;100.00
33781;BME280;20097;50.832;19.100;2023-02-19T22:50:18;98756.78;;;0.18;100.00
33781;BME280;20097;50.832;19.100;2023-02-19T22:55:25;98758.81;;;0.13;100.00
33781;BME280;20097;50.832;19.100;2023-02-19T23:00:30;98760.47;;;0.14;100.00
33781;BME280;20097;50.832;19.100;2023-02-19T23:05:34;98769.63;;;0.18;100.00
33781;BME280;20097;50.832;19.100;2023-02-19T23:10:40;98786.25;;;0.25;100.00
33781;BME280;20097;50.832;19.100;2023-02-19T23:15:44;98785.66;;;0.21;100.00
33781;BME280;20097;50.832;19.100;2023-02-19T23:20:49;98783.16;;;0.20;100.00
33781;BME280;20097;50.832;19.100;2023-02-19T23:25:54;98795.72;;;0.24;100.00
33781;BME280;20097;50.832;19.100;2023-02-19T23:30:59;98785.88;;;0.31;100.00
33781;BME280;20097;50.832;19.100;2023-02-19T23:36:04;98781.38;;;0.34;100.00
33781;BME280;20097;50.832;19.100;2023-02-19T23:41:12;98773.59;;;0.36;100.00
33781;BME280;20097;50.832;19.100;2023-02-19T23:46:17;98774.91;;;0.41;100.00
33781;BME280;20097;50.832;19.100;2023-02-19T23:51:22;98766.78;;;0.35;100.00
33781;BME280;20097;50.832;19.100;2023-02-19T23:56:28;98761.53;;;0.36;100.00
